Time;durP1;ratioP1;P1;durP2;ratioP2;P2;SDS_P1;SDS_P2;PMS_P1;PMS_P2;Temp;Humidity;BMP_temperature;BMP_pressure;BME280_temperature;BME280_humidity;BME280_pressure;Samples;Min_cycle;Max_cycle;Signal;HPM_P1;HPM_P2
2022/03/15 00:01:19;;;;;;;70.20;51.58;;;18.10;53.10;;;;;;4985543;28;86138;-71
2022/03/15 00:03:44;;;;;;;70.43;51.50;;;18.00;52.50;;;;;;4986742;28;87205;-70
2022/03/15 00:06:10;;;;;;;70.65;51.72;;;18.00;52.60;;;;;;4985540;28;85361;-70
2022/03/15 00:08:36;;;;;;;71.18;51.15;;;18.00;52.60;;;;;;4985671;28;87622;-70
2022/03/15 00:11:05;;;;;;;68.55;50.97;;;18.00;52.60;;;;;;4982617;28;87026;-70
2022/03/15 00:13:38;;;;;;;70.30;51.15;;;18.00;52.60;;;;;;4984860;28;86211;-70
2022/03/15 00:16:04;;;;;;;70.18;50.85;;;17.90;52.60;;;;;;4994585;28;85863;-70
2022/03/15 00:18:31;;;;;;;70.00;51.05;;;17.90;52.70;;;;;;4989276;28;85767;-70
2022/03/15 00:21:05;;;;;;;68.03;50.78;;;17.90;52.60;;;;;;5000021;28;85870;-70
2022/03/15 00:23:31;;;;;;;70.78;51.58;;;17.90;52.70;;;;;;4989557;28;86201;-71
2022/03/15 00:25:59;;;;;;;69.65;51.28;;;17.90;52.70;;;;;;4995098;28;85730;-70
2022/03/15 00:28:25;;;;;;;69.68;50.80;;;17.90;52.70;;;;;;4994634;27;86673;-71
2022/03/15 00:30:52;;;;;;;69.68;51.15;;;17.80;52.70;;;;;;4988734;28;85552;-70
2022/03/15 00:33:18;;;;;;;70.85;51.22;;;17.80;52.70;;;;;;4992346;28;85459;-70
2022/03/15 00:35:44;;;;;;;67.57;50.60;;;17.80;52.70;;;;;;4990363;28;85460;-70
2022/03/15 00:38:10;;;;;;;68.75;50.75;;;17.80;52.70;;;;;;4991393;28;89386;-70
2022/03/15 00:40:36;;;;;;;68.50;50.65;;;17.80;52.80;;;;;;4992137;28;86300;-70
2022/03/15 00:43:02;;;;;;;68.88;50.65;;;17.70;52.80;;;;;;4992014;28;85412;-70
2022/03/15 00:45:28;;;;;;;69.28;50.92;;;17.70;52.80;;;;;;4990476;28;87883;-70
2022/03/15 00:47:55;;;;;;;69.22;50.85;;;17.70;52.80;;;;;;4995569;28;85516;-70
2022/03/15 00:50:22;;;;;;;68.22;50.85;;;17.70;52.90;;;;;;4986104;28;86326;-70
2022/03/15 00:52:49;;;;;;;68.47;51.05;;;17.70;52.90;;;;;;4981577;28;86387;-70
2022/03/15 00:55:15;;;;;;;69.45;50.80;;;17.70;52.90;;;;;;4983049;28;86236;-71
2022/03/15 00:57:41;;;;;;;68.93;50.70;;;17.70;52.90;;;;;;4977279;28;86430;-70
2022/03/15 01:00:11;;;;;;;67.82;50.45;;;17.60;52.90;;;;;;4979230;28;86526;-71
2022/03/15 01:02:37;;;;;;;67.03;50.85;;;17.70;53.10;;;;;;4980813;28;86638;-70
2022/03/15 01:05:04;;;;;;;70.72;51.20;;;17.60;52.90;;;;;;4992178;28;85669;-70
2022/03/15 01:07:30;;;;;;;67.43;50.70;;;17.60;53.00;;;;;;4990025;28;85452;-70
2022/03/15 01:09:55;;;;;;;68.28;50.60;;;17.60;53.00;;;;;;4992315;28;85864;-70
2022/03/15 01:12:21;;;;;;;66.97;50.67;;;17.60;53.00;;;;;;4973849;28;86432;-70
2022/03/15 01:14:46;;;;;;;67.63;50.35;;;17.50;53.00;;;;;;4959385;28;87724;-70
2022/03/15 01:17:12;;;;;;;67.15;50.58;;;17.50;53.00;;;;;;4971364;28;87933;-70
2022/03/15 01:19:38;;;;;;;68.47;50.72;;;17.50;53.10;;;;;;4963344;28;89412;-70
2022/03/15 01:22:04;;;;;;;68.03;51.00;;;17.50;53.00;;;;;;4958289;28;87116;-70
2022/03/15 01:24:30;;;;;;;68.18;50.60;;;17.50;53.10;;;;;;4969653;28;86420;-70
2022/03/15 01:26:58;;;;;;;67.40;50.67;;;17.50;53.70;;;;;;4970069;28;87612;-70
2022/03/15 01:29:26;;;;;;;67.93;50.70;;;17.40;53.20;;;;;;4955519;28;85523;-70
2022/03/15 01:31:52;;;;;;;66.63;50.10;;;17.40;53.70;;;;;;4977004;28;86094;-70
2022/03/15 01:34:17;;;;;;;68.38;50.58;;;17.40;53.10;;;;;;4961712;27;88412;-70
2022/03/15 01:36:43;;;;;;;66.25;49.95;;;17.40;53.20;;;;;;4969007;28;86900;-71
2022/03/15 01:39:09;;;;;;;67.47;50.45;;;17.30;53.10;;;;;;4974826;28;85860;-70
2022/03/15 01:41:40;;;;;;;66.95;50.47;;;17.40;53.20;;;;;;4970596;28;87972;-70
2022/03/15 01:44:17;;;;;;;68.13;50.50;;;17.30;53.10;;;;;;4979770;28;86868;-70
2022/03/15 01:46:43;;;;;;;66.40;50.45;;;17.30;53.20;;;;;;5004217;27;87015;-71
2022/03/15 01:49:10;;;;;;;68.40;50.35;;;17.30;53.20;;;;;;4959461;28;87744;-70
2022/03/15 01:51:40;;;;;;;66.75;50.40;;;17.30;53.20;;;;;;4963762;28;88944;-70
2022/03/15 01:54:06;;;;;;;67.43;50.25;;;17.30;53.20;;;;;;4956614;28;85780;-70
2022/03/15 01:56:32;;;;;;;68.53;50.33;;;17.20;53.20;;;;;;4953675;28;87288;-70
2022/03/15 01:58:59;;;;;;;66.72;50.10;;;17.20;53.20;;;;;;4953032;28;90057;-70
2022/03/15 02:01:25;;;;;;;66.95;50.25;;;17.20;53.30;;;;;;4966217;28;93552;-71
2022/03/15 02:03:51;;;;;;;67.00;50.22;;;17.20;53.30;;;;;;4963364;28;88572;-70
2022/03/15 02:06:17;;;;;;;67.65;50.30;;;17.20;53.30;;;;;;4956086;28;87807;-70
2022/03/15 02:08:43;;;;;;;66.80;49.78;;;17.20;53.30;;;;;;4981582;28;89267;-70
2022/03/15 02:11:09;;;;;;;66.40;50.22;;;17.20;53.30;;;;;;4970809;28;86604;-70
2022/03/15 02:13:34;;;;;;;66.10;50.17;;;17.20;53.20;;;;;;4966459;28;87958;-70
2022/03/15 02:16:00;;;;;;;67.07;49.95;;;17.10;53.20;;;;;;4972176;28;86832;-70
2022/03/15 02:18:27;;;;;;;68.97;50.33;;;17.20;53.30;;;;;;4970656;28;86816;-70
2022/03/15 02:20:54;;;;;;;67.78;50.45;;;17.20;53.30;;;;;;4963288;28;87222;-71
2022/03/15 02:23:20;;;;;;;65.88;49.83;;;17.20;53.40;;;;;;4960881;28;87859;-70
2022/03/15 02:25:45;;;;;;;67.40;50.03;;;17.20;53.30;;;;;;4959720;28;86475;-70
2022/03/15 02:28:11;;;;;;;65.72;49.90;;;17.20;53.30;;;;;;4970390;27;86360;-70
2022/03/15 02:30:36;;;;;;;66.30;49.75;;;17.20;53.30;;;;;;4966611;28;85747;-70
2022/03/15 02:33:02;;;;;;;65.70;49.92;;;17.20;53.20;;;;;;4964194;28;86077;-70
2022/03/15 02:35:28;;;;;;;66.88;50.03;;;17.30;53.20;;;;;;4950498;28;87611;-70
2022/03/15 02:37:54;;;;;;;66.72;50.05;;;17.30;53.20;;;;;;4980431;28;85849;-70
2022/03/15 02:40:19;;;;;;;65.35;50.03;;;17.30;53.10;;;;;;4975270;28;85296;-70
2022/03/15 02:42:45;;;;;;;65.60;50.25;;;17.30;53.00;;;;;;4966735;28;87205;-70
2022/03/15 02:45:11;;;;;;;65.43;49.85;;;17.40;53.00;;;;;;4971272;28;88083;-70
2022/03/15 02:47:42;;;;;;;66.22;49.65;;;17.40;53.00;;;;;;4969584;28;86874;-70
2022/03/15 02:50:08;;;;;;;65.57;50.20;;;17.40;52.90;;;;;;4967719;28;85975;-71
2022/03/15 02:52:34;;;;;;;66.15;49.85;;;17.40;52.90;;;;;;4952710;28;86840;-70
2022/03/15 02:55:00;;;;;;;64.50;49.42;;;17.40;52.90;;;;;;4955261;28;88390;-70
2022/03/15 02:57:28;;;;;;;66.03;49.72;;;17.40;52.80;;;;;;4978012;28;85537;-70
2022/03/15 02:59:54;;;;;;;66.82;50.13;;;17.40;52.80;;;;;;4958282;27;86971;-70
2022/03/15 03:02:20;;;;;;;65.35;49.40;;;17.40;52.70;;;;;;4959215;28;88030;-70
2022/03/15 03:04:46;;;;;;;65.93;50.08;;;17.40;52.70;;;;;;4952284;28;88826;-70
2022/03/15 03:07:12;;;;;;;65.30;49.85;;;17.40;52.70;;;;;;4958964;28;88435;-70
2022/03/15 03:09:38;;;;;;;65.50;49.95;;;17.40;52.70;;;;;;4968388;28;87136;-70
2022/03/15 03:12:03;;;;;;;65.57;49.53;;;17.40;52.70;;;;;;4972858;27;90002;-71
2022/03/15 03:14:29;;;;;;;66.30;49.85;;;17.40;52.70;;;;;;4952884;28;87147;-70
2022/03/15 03:16:55;;;;;;;65.15;49.90;;;17.40;52.70;;;;;;4958361;28;87815;-71
2022/03/15 03:19:20;;;;;;;65.70;49.95;;;17.40;52.70;;;;;;4948519;28;87025;-70
2022/03/15 03:21:48;;;;;;;65.55;49.75;;;17.30;52.70;;;;;;4986908;28;88283;-70
2022/03/15 03:24:21;;;;;;;65.50;49.60;;;17.30;52.60;;;;;;4960308;28;88279;-70
2022/03/15 03:26:46;;;;;;;64.63;49.55;;;17.40;52.70;;;;;;4966596;28;87198;-70
2022/03/15 03:29:13;;;;;;;64.18;49.42;;;17.30;52.70;;;;;;4961631;28;86755;-71
2022/03/15 03:31:42;;;;;;;65.30;49.85;;;17.30;52.80;;;;;;4970825;28;86723;-70
2022/03/15 03:34:08;;;;;;;66.97;49.67;;;17.30;52.70;;;;;;4954569;28;92755;-70
2022/03/15 03:36:36;;;;;;;64.53;49.35;;;17.30;52.70;;;;;;4961140;28;88692;-70
2022/03/15 03:39:05;;;;;;;65.25;49.70;;;17.30;52.70;;;;;;4963893;28;86602;-70
2022/03/15 03:41:31;;;;;;;64.82;49.60;;;17.30;52.80;;;;;;4968998;28;86501;-70
2022/03/15 03:43:57;;;;;;;64.82;49.35;;;17.20;52.70;;;;;;4956817;28;85485;-70
2022/03/15 03:46:23;;;;;;;64.88;49.15;;;17.20;52.80;;;;;;4972011;28;87146;-70
2022/03/15 03:48:50;;;;;;;66.68;49.75;;;17.20;52.80;;;;;;4961307;27;87733;-71
2022/03/15 03:51:20;;;;;;;65.13;49.55;;;17.10;52.70;;;;;;4954250;28;87653;-70
2022/03/15 03:53:45;;;;;;;65.10;49.85;;;17.20;52.80;;;;;;4964613;28;87866;-70
2022/03/15 03:56:11;;;;;;;64.65;49.42;;;17.20;52.80;;;;;;4969394;28;85989;-70
2022/03/15 03:58:37;;;;;;;64.20;49.60;;;17.20;52.90;;;;;;4967084;27;87622;-71
2022/03/15 04:01:04;;;;;;;65.32;49.88;;;17.10;52.80;;;;;;4971553;28;88602;-70
2022/03/15 04:03:32;;;;;;;64.53;49.30;;;17.10;52.80;;;;;;4962096;28;93065;-70
2022/03/15 04:05:58;;;;;;;63.95;49.33;;;17.10;52.90;;;;;;4977296;27;87616;-70
2022/03/15 04:08:24;;;;;;;64.80;49.42;;;17.10;52.90;;;;;;4970903;28;85964;-70
2022/03/15 04:10:50;;;;;;;64.85;49.58;;;17.10;53.00;;;;;;4976174;28;85521;-70
2022/03/15 04:13:18;;;;;;;64.45;49.60;;;17.00;52.80;;;;;;4971828;28;88733;-70
2022/03/15 04:15:49;;;;;;;65.95;49.85;;;17.00;53.40;;;;;;4961878;28;88943;-70
2022/03/15 04:18:14;;;;;;;65.00;49.30;;;17.00;52.90;;;;;;4969869;28;86824;-71
2022/03/15 04:20:41;;;;;;;65.53;49.58;;;17.00;52.90;;;;;;4967315;28;90885;-70
2022/03/15 04:23:08;;;;;;;65.10;49.33;;;17.00;52.90;;;;;;4963616;27;85657;-71
2022/03/15 04:25:34;;;;;;;64.35;49.15;;;17.00;52.90;;;;;;4970504;28;88440;-70
2022/03/15 04:28:00;;;;;;;64.25;49.33;;;17.00;53.00;;;;;;4982227;28;85375;-70
2022/03/15 04:30:30;;;;;;;64.43;49.42;;;17.10;53.10;;;;;;4974294;28;85558;-70
2022/03/15 04:32:58;;;;;;;63.92;49.03;;;17.10;53.10;;;;;;4965504;28;89304;-70
2022/03/15 04:35:24;;;;;;;64.13;49.25;;;17.10;53.10;;;;;;4961041;28;85921;-70
2022/03/15 04:37:54;;;;;;;65.03;49.00;;;17.10;53.00;;;;;;4968459;28;86925;-70
2022/03/15 04:40:19;;;;;;;63.80;49.17;;;17.10;53.00;;;;;;4964811;28;85939;-70
2022/03/15 04:42:48;;;;;;;62.83;48.83;;;17.20;53.00;;;;;;4958581;28;87017;-70
2022/03/15 04:45:15;;;;;;;64.32;49.15;;;17.20;52.90;;;;;;4961051;28;86636;-70
2022/03/15 04:47:40;;;;;;;63.85;49.15;;;17.30;52.90;;;;;;4963559;28;85352;-70
2022/03/15 04:50:07;;;;;;;65.45;49.47;;;17.30;52.80;;;;;;4962783;28;89471;-70
2022/03/15 04:52:34;;;;;;;63.83;49.03;;;17.30;52.70;;;;;;4969199;28;85587;-70
2022/03/15 04:55:00;;;;;;;64.28;49.33;;;17.30;52.70;;;;;;4975382;28;86048;-70
2022/03/15 04:57:26;;;;;;;64.25;49.22;;;17.30;52.70;;;;;;4977883;28;86485;-70
2022/03/15 04:59:52;;;;;;;64.47;49.00;;;17.40;52.70;;;;;;4960131;28;86595;-70
2022/03/15 05:02:17;;;;;;;63.95;49.22;;;17.30;52.60;;;;;;4964438;28;86388;-70
2022/03/15 05:04:43;;;;;;;62.95;49.08;;;17.40;52.60;;;;;;4970592;28;91778;-69
2022/03/15 05:07:09;;;;;;;63.80;48.85;;;17.40;52.70;;;;;;4962639;28;86914;-70
2022/03/15 05:09:35;;;;;;;63.38;49.08;;;17.40;52.80;;;;;;4961470;27;90986;-70
2022/03/15 05:12:00;;;;;;;63.95;49.00;;;17.40;52.90;;;;;;4975433;28;86129;-70
2022/03/15 05:14:26;;;;;;;64.20;49.15;;;17.50;52.90;;;;;;4961947;28;87209;-70
2022/03/15 05:16:51;;;;;;;64.53;49.05;;;17.50;52.90;;;;;;4973505;28;88065;-70
2022/03/15 05:19:17;;;;;;;64.13;49.10;;;17.60;53.30;;;;;;4972603;28;87923;-71
2022/03/15 05:21:42;;;;;;;64.07;48.97;;;17.70;52.80;;;;;;4932028;28;89456;-70
2022/03/15 05:24:08;;;;;;;63.97;49.13;;;17.70;52.80;;;;;;4940317;28;90773;-70
2022/03/15 05:26:34;;;;;;;65.43;49.20;;;17.80;52.70;;;;;;4940019;28;89929;-70
2022/03/15 05:29:00;;;;;;;64.70;49.30;;;17.90;52.50;;;;;;4941505;28;85228;-70
2022/03/15 05:31:28;;;;;;;66.03;49.15;;;18.00;52.40;;;;;;4949426;28;88462;-70
2022/03/15 05:33:54;;;;;;;64.40;49.15;;;18.00;52.30;;;;;;4938610;28;91195;-70
2022/03/15 05:36:20;;;;;;;64.38;49.28;;;18.10;52.30;;;;;;4938772;28;86780;-71
2022/03/15 05:38:46;;;;;;;65.63;49.05;;;18.20;52.10;;;;;;4932818;28;88417;-70
2022/03/15 05:41:12;;;;;;;62.92;48.75;;;18.20;52.00;;;;;;4928680;28;89247;-72
2022/03/15 05:43:38;;;;;;;64.70;49.40;;;18.30;52.10;;;;;;4935715;27;90256;-69
2022/03/15 05:46:04;;;;;;;64.00;49.38;;;18.30;51.90;;;;;;4957860;28;86793;-71
2022/03/15 05:48:31;;;;;;;64.85;49.55;;;18.40;51.80;;;;;;4943260;28;86787;-72
2022/03/15 05:50:57;;;;;;;64.03;49.33;;;18.40;51.70;;;;;;4944091;28;90598;-72
2022/03/15 05:53:23;;;;;;;64.35;49.17;;;18.50;51.70;;;;;;4938866;28;88185;-69
2022/03/15 05:55:48;;;;;;;66.40;49.75;;;18.50;51.50;;;;;;4943390;28;85852;-72
2022/03/15 05:58:14;;;;;;;64.30;49.50;;;18.50;51.30;;;;;;4959459;28;86500;-70
2022/03/15 06:00:42;;;;;;;65.90;49.97;;;18.50;51.40;;;;;;4954813;28;86040;-71
2022/03/15 06:03:10;;;;;;;65.68;49.75;;;18.60;51.30;;;;;;4940892;28;92834;-71
2022/03/15 06:05:37;;;;;;;64.25;49.47;;;18.60;51.30;;;;;;4928166;28;89584;-70
2022/03/15 06:08:02;;;;;;;65.75;49.25;;;18.60;51.20;;;;;;4944160;28;86465;-71
2022/03/15 06:10:28;;;;;;;64.30;49.38;;;18.60;51.10;;;;;;4933952;28;90471;-72
2022/03/15 06:12:54;;;;;;;64.18;49.17;;;18.60;51.20;;;;;;4940679;28;86294;-71
2022/03/15 06:15:21;;;;;;;64.10;49.33;;;18.60;51.10;;;;;;4939506;28;90265;-71
2022/03/15 06:17:48;;;;;;;65.50;49.35;;;18.60;51.10;;;;;;4946911;28;86168;-71
2022/03/15 06:20:17;;;;;;;64.20;49.28;;;18.60;51.10;;;;;;4929794;28;86924;-71
2022/03/15 06:22:44;;;;;;;65.35;49.30;;;18.60;51.10;;;;;;4951513;28;86929;-71
2022/03/15 06:25:10;;;;;;;64.35;49.40;;;18.60;51.10;;;;;;4935918;28;91161;-71
2022/03/15 06:27:36;;;;;;;64.88;49.50;;;18.60;51.00;;;;;;4942761;28;89367;-72
2022/03/15 06:30:04;;;;;;;64.55;49.15;;;18.60;51.00;;;;;;4940787;28;89227;-72
2022/03/15 06:32:31;;;;;;;64.30;49.40;;;18.60;51.10;;;;;;4939970;27;89967;-71
2022/03/15 06:34:58;;;;;;;64.80;49.63;;;18.60;51.10;;;;;;4937842;28;91260;-73
2022/03/15 06:37:27;;;;;;;63.67;49.17;;;18.60;51.00;;;;;;4938921;28;91023;-72
2022/03/15 06:39:54;;;;;;;64.50;49.45;;;18.50;51.00;;;;;;4930159;28;87194;-72
2022/03/15 06:42:21;;;;;;;64.40;48.95;;;18.50;51.20;;;;;;4932145;28;86645;-72
2022/03/15 06:44:47;;;;;;;64.57;49.65;;;18.50;51.10;;;;;;4939891;28;89978;-73
2022/03/15 06:47:12;;;;;;;64.68;49.38;;;18.50;51.00;;;;;;4933934;28;86628;-72
2022/03/15 06:49:38;;;;;;;65.15;49.63;;;18.50;51.10;;;;;;4937848;28;86352;-72
2022/03/15 06:52:04;;;;;;;64.85;49.25;;;18.40;51.00;;;;;;4943647;28;86209;-72
2022/03/15 06:54:30;;;;;;;63.60;49.13;;;18.40;51.00;;;;;;4935281;28;86597;-72
2022/03/15 06:56:59;;;;;;;64.10;49.47;;;18.30;51.00;;;;;;4947126;28;87649;-72
2022/03/15 06:59:24;;;;;;;64.82;49.53;;;18.30;51.00;;;;;;4936287;28;87441;-72
2022/03/15 07:01:50;;;;;;;64.28;49.72;;;18.30;51.00;;;;;;4939030;27;86866;-72
2022/03/15 07:04:17;;;;;;;63.78;49.13;;;18.30;51.20;;;;;;4936925;28;86986;-72
2022/03/15 07:06:44;;;;;;;63.20;48.95;;;18.20;51.20;;;;;;4936736;28;87139;-72
2022/03/15 07:09:10;;;;;;;64.43;48.97;;;18.20;51.10;;;;;;4944869;28;88554;-72
2022/03/15 07:11:35;;;;;;;64.40;49.15;;;18.20;51.20;;;;;;4935604;28;87455;-72
2022/03/15 07:14:02;;;;;;;63.70;49.28;;;18.20;51.20;;;;;;4936832;28;85431;-72
2022/03/15 07:16:28;;;;;;;64.57;48.90;;;18.20;51.20;;;;;;4933516;28;86649;-73
2022/03/15 07:18:55;;;;;;;64.88;49.38;;;18.20;51.30;;;;;;4940378;28;86948;-72
2022/03/15 07:21:20;;;;;;;63.75;49.35;;;18.10;51.20;;;;;;4936049;28;86250;-72
2022/03/15 07:23:46;;;;;;;63.30;49.05;;;18.10;51.20;;;;;;4948559;28;87785;-72
2022/03/15 07:26:12;;;;;;;63.33;48.85;;;18.10;51.30;;;;;;4958497;28;86646;-72
2022/03/15 07:28:38;;;;;;;63.30;48.97;;;18.00;51.30;;;;;;4939895;28;88821;-72
2022/03/15 07:31:04;;;;;;;64.18;48.92;;;18.10;51.30;;;;;;4935249;28;86448;-73
2022/03/15 07:33:30;;;;;;;63.00;48.75;;;18.00;51.30;;;;;;4937387;27;87539;-72
2022/03/15 07:35:55;;;;;;;64.05;49.33;;;18.00;51.40;;;;;;4934869;28;87006;-73
2022/03/15 07:38:21;;;;;;;64.15;49.38;;;18.00;51.40;;;;;;4939151;28;91404;-72
2022/03/15 07:40:48;;;;;;;62.67;48.80;;;18.00;51.40;;;;;;4945851;28;89931;-72
2022/03/15 07:43:13;;;;;;;63.85;49.22;;;17.90;51.40;;;;;;4945166;28;87005;-72
2022/03/15 07:45:39;;;;;;;64.00;49.28;;;17.90;51.40;;;;;;4934505;28;89128;-72
2022/03/15 07:48:05;;;;;;;63.63;48.85;;;18.00;51.50;;;;;;4936299;28;87249;-72
2022/03/15 07:50:33;;;;;;;64.03;49.45;;;17.90;51.50;;;;;;4937240;28;87411;-73
2022/03/15 07:52:58;;;;;;;63.15;48.85;;;17.90;51.50;;;;;;4942907;28;87515;-72
2022/03/15 07:55:24;;;;;;;64.28;49.40;;;17.90;51.60;;;;;;4934238;28;87151;-72
2022/03/15 07:57:50;;;;;;;63.40;49.03;;;17.90;51.60;;;;;;4978467;28;90448;-73
2022/03/15 08:00:16;;;;;;;64.03;49.45;;;17.80;51.60;;;;;;4968938;28;86185;-72
2022/03/15 08:02:42;;;;;;;65.47;49.25;;;17.80;51.60;;;;;;4977958;28;85704;-73
2022/03/15 08:05:09;;;;;;;63.35;48.95;;;17.80;51.60;;;;;;4991510;27;86484;-72
2022/03/15 08:07:36;;;;;;;63.90;49.25;;;17.80;51.60;;;;;;4966950;28;87812;-72
2022/03/15 08:10:04;;;;;;;64.30;49.20;;;17.80;51.70;;;;;;4972338;28;86687;-72
2022/03/15 08:12:29;;;;;;;63.30;49.05;;;17.80;51.70;;;;;;4976643;28;86915;-73
2022/03/15 08:14:55;;;;;;;64.03;49.08;;;17.80;51.70;;;;;;4980887;28;88194;-72
2022/03/15 08:17:20;;;;;;;63.55;49.13;;;17.70;51.70;;;;;;4983861;28;90940;-73
2022/03/15 08:19:46;;;;;;;64.70;49.60;;;17.80;51.80;;;;;;4979337;28;86859;-72
2022/03/15 08:22:12;;;;;;;64.05;49.00;;;17.80;51.90;;;;;;4977649;28;86531;-72
2022/03/15 08:24:37;;;;;;;63.72;49.05;;;17.70;51.70;;;;;;4986399;28;85554;-73
2022/03/15 08:27:03;;;;;;;63.30;49.30;;;17.70;51.80;;;;;;4979902;28;87755;-72
2022/03/15 08:29:30;;;;;;;64.43;49.25;;;17.70;51.80;;;;;;4980828;28;85998;-74
2022/03/15 08:31:57;;;;;;;63.67;49.30;;;17.70;51.80;;;;;;4993143;28;85731;-72
2022/03/15 08:34:23;;;;;;;64.35;49.33;;;17.60;51.40;;;;;;4980621;28;85963;-73
2022/03/15 08:36:49;;;;;;;63.63;49.33;;;17.60;51.80;;;;;;4974033;28;86571;-72
2022/03/15 08:39:15;;;;;;;63.75;49.35;;;17.60;51.70;;;;;;4989410;28;88813;-72
2022/03/15 08:41:42;;;;;;;65.10;49.40;;;17.60;51.70;;;;;;4989918;28;85094;-72
2022/03/15 08:44:08;;;;;;;64.00;49.22;;;17.60;51.80;;;;;;4980515;28;85817;-73
2022/03/15 08:46:34;;;;;;;63.15;49.35;;;17.60;51.80;;;;;;4995172;28;86834;-72
2022/03/15 08:48:59;;;;;;;64.57;49.55;;;17.60;51.80;;;;;;4979545;28;85866;-72
2022/03/15 08:51:25;;;;;;;63.58;49.03;;;17.60;51.80;;;;;;4992436;28;85923;-72
2022/03/15 08:53:51;;;;;;;64.32;49.55;;;17.50;51.80;;;;;;4968484;28;88170;-73
2022/03/15 08:56:16;;;;;;;63.58;49.25;;;17.50;51.80;;;;;;4986422;28;85972;-72
2022/03/15 08:58:42;;;;;;;64.13;49.17;;;17.50;51.80;;;;;;4997543;28;86167;-72
2022/03/15 09:01:07;;;;;;;63.30;49.28;;;17.50;51.90;;;;;;4965671;27;86794;-72
2022/03/15 09:03:33;;;;;;;63.78;48.95;;;17.50;51.90;;;;;;4937714;28;87730;-72
2022/03/15 09:05:58;;;;;;;63.67;49.10;;;17.50;51.90;;;;;;4945639;28;88298;-72
2022/03/15 09:08:24;;;;;;;64.13;49.15;;;17.50;51.90;;;;;;4936488;28;88740;-71
2022/03/15 09:10:50;;;;;;;64.82;49.42;;;17.50;52.00;;;;;;4951124;28;87824;-72
2022/03/15 09:13:15;;;;;;;63.97;49.42;;;17.40;51.90;;;;;;4942697;28;91220;-73
2022/03/15 09:15:41;;;;;;;63.53;49.13;;;17.40;52.00;;;;;;4940091;28;87778;-72
2022/03/15 09:18:07;;;;;;;64.40;49.55;;;17.50;52.10;;;;;;4940343;28;89143;-72
2022/03/15 09:20:33;;;;;;;64.95;49.40;;;17.50;52.10;;;;;;4940346;28;86118;-72
2022/03/15 09:22:59;;;;;;;64.07;49.40;;;17.40;52.10;;;;;;4941599;28;88903;-73
2022/03/15 09:25:25;;;;;;;63.58;49.28;;;17.40;52.00;;;;;;4937740;28;86952;-72
2022/03/15 09:27:50;;;;;;;64.38;49.33;;;17.40;52.00;;;;;;4941532;28;87286;-72
2022/03/15 09:30:17;;;;;;;64.15;49.17;;;17.40;52.00;;;;;;4949264;27;86998;-71
2022/03/15 09:32:43;;;;;;;65.55;49.42;;;17.40;52.00;;;;;;4944894;28;87880;-71
2022/03/15 09:35:09;;;;;;;64.57;49.70;;;17.40;52.10;;;;;;4935782;28;86891;-71
2022/03/15 09:37:35;;;;;;;64.75;49.75;;;17.40;52.10;;;;;;4940866;28;86938;-72
2022/03/15 09:40:01;;;;;;;64.43;49.63;;;17.40;52.10;;;;;;4948586;28;85476;-71
2022/03/15 09:42:29;;;;;;;63.88;49.42;;;17.40;52.10;;;;;;4975805;28;86504;-71
2022/03/15 09:44:57;;;;;;;64.25;49.35;;;17.40;52.10;;;;;;4986165;28;86198;-71
2022/03/15 09:47:32;;;;;;;64.22;49.42;;;17.40;52.20;;;;;;4981832;27;85565;-71
2022/03/15 09:49:59;;;;;;;64.03;49.33;;;17.40;52.20;;;;;;4989441;28;86507;-71
2022/03/15 09:52:27;;;;;;;64.22;49.63;;;17.30;52.20;;;;;;4983159;28;86959;-71
2022/03/15 09:54:54;;;;;;;64.25;49.55;;;17.30;52.20;;;;;;4978616;28;86792;-71
2022/03/15 09:57:21;;;;;;;64.15;49.42;;;17.30;52.20;;;;;;4990868;28;90432;-72
2022/03/15 09:59:50;;;;;;;63.88;49.55;;;17.40;52.20;;;;;;4980890;28;85483;-72
2022/03/15 10:02:16;;;;;;;63.83;49.55;;;17.30;52.20;;;;;;4994728;28;86111;-71
2022/03/15 10:04:42;;;;;;;64.15;49.60;;;17.30;52.20;;;;;;4994647;28;88707;-71
2022/03/15 10:07:08;;;;;;;63.65;49.22;;;17.30;52.20;;;;;;4962164;28;86407;-71
2022/03/15 10:09:34;;;;;;;63.65;49.50;;;17.30;52.20;;;;;;4943946;28;87132;-71
2022/03/15 10:12:00;;;;;;;64.15;49.40;;;17.30;52.20;;;;;;4941897;28;87372;-71
2022/03/15 10:14:26;;;;;;;63.88;49.72;;;17.30;52.20;;;;;;4940376;28;87076;-71
2022/03/15 10:16:59;;;;;;;65.15;49.67;;;17.30;52.20;;;;;;4942638;28;85593;-71
2022/03/15 10:19:25;;;;;;;63.60;49.10;;;17.30;52.30;;;;;;4945767;28;89009;-71
2022/03/15 10:21:53;;;;;;;63.70;49.25;;;17.30;52.20;;;;;;4937765;28;86557;-72
2022/03/15 10:24:23;;;;;;;63.75;49.42;;;17.30;52.40;;;;;;4944210;28;89102;-72
2022/03/15 10:26:54;;;;;;;64.63;49.53;;;17.30;52.20;;;;;;4937867;28;86395;-71
2022/03/15 10:29:21;;;;;;;63.70;49.50;;;17.30;52.30;;;;;;4949551;28;91562;-71
2022/03/15 10:31:47;;;;;;;64.78;49.50;;;17.30;52.30;;;;;;4941783;28;88131;-71
2022/03/15 10:34:15;;;;;;;64.38;49.60;;;17.30;52.20;;;;;;4940891;28;86146;-71
2022/03/15 10:36:46;;;;;;;65.15;49.67;;;17.30;52.30;;;;;;4941194;28;85924;-71
2022/03/15 10:39:15;;;;;;;64.45;49.58;;;17.30;52.30;;;;;;4942468;28;89616;-71
2022/03/15 10:41:46;;;;;;;64.82;49.45;;;17.30;52.30;;;;;;4947127;28;86875;-71
2022/03/15 10:44:17;;;;;;;65.82;49.60;;;17.30;52.20;;;;;;4972578;28;86621;-71
2022/03/15 10:46:43;;;;;;;64.10;49.33;;;17.30;52.20;;;;;;4988003;28;87937;-71
2022/03/15 10:49:09;;;;;;;65.10;49.75;;;17.40;52.30;;;;;;4985043;28;85788;-71
2022/03/15 10:51:36;;;;;;;64.82;49.65;;;17.30;52.20;;;;;;4985526;28;87889;-72
2022/03/15 10:54:06;;;;;;;64.35;49.65;;;17.40;52.30;;;;;;4990470;28;86070;-71
2022/03/15 10:56:32;;;;;;;65.03;49.67;;;17.30;52.20;;;;;;4975842;28;90642;-71
2022/03/15 10:59:05;;;;;;;66.43;49.88;;;17.30;52.20;;;;;;4987088;28;85837;-71
2022/03/15 11:01:39;;;;;;;64.93;49.60;;;17.30;52.20;;;;;;4993000;28;85992;-71
2022/03/15 11:04:11;;;;;;;65.30;49.85;;;17.40;52.20;;;;;;4973750;28;86491;-72
2022/03/15 11:06:44;;;;;;;65.03;49.63;;;17.40;52.20;;;;;;4972651;28;86917;-73
2022/03/15 11:09:29;;;;;;;66.78;50.33;;;17.40;52.20;;;;;;4988978;28;86701;-71
2022/03/15 11:12:02;;;;;;;66.25;50.13;;;17.40;52.20;;;;;;4989179;27;87364;-71
2022/03/15 11:14:48;;;;;;;66.47;50.33;;;17.40;52.10;;;;;;4981788;27;87065;-71
2022/03/15 11:17:20;;;;;;;65.63;49.95;;;17.40;52.10;;;;;;4993872;28;87421;-71
2022/03/15 11:19:48;;;;;;;66.55;50.28;;;17.50;52.10;;;;;;4991036;28;85409;-71
2022/03/15 11:22:17;;;;;;;66.13;50.00;;;17.50;52.10;;;;;;4967566;28;88592;-71
2022/03/15 11:24:48;;;;;;;67.53;50.38;;;17.50;52.10;;;;;;4980521;28;88559;-71
2022/03/15 11:27:16;;;;;;;66.43;50.38;;;17.60;52.10;;;;;;4976710;28;88632;-71
2022/03/15 11:29:44;;;;;;;66.97;50.40;;;17.60;52.00;;;;;;4969699;28;86943;-72
2022/03/15 11:32:12;;;;;;;66.75;50.53;;;17.60;52.00;;;;;;4987518;28;86215;-71
2022/03/15 11:34:42;;;;;;;66.47;50.17;;;17.60;52.00;;;;;;4965040;28;88219;-71
2022/03/15 11:37:12;;;;;;;67.32;50.65;;;17.70;51.90;;;;;;4980421;28;86786;-71
2022/03/15 11:39:39;;;;;;;67.45;50.22;;;17.70;51.90;;;;;;4989167;28;85835;-71
2022/03/15 11:42:09;;;;;;;66.57;50.40;;;17.70;51.80;;;;;;4989724;28;86224;-71
2022/03/15 11:45:04;;;;;;;66.90;50.37;;;17.70;51.80;;;;;;4967513;28;85981;-71
2022/03/15 11:47:44;;;;;;;66.32;50.05;;;17.70;51.80;;;;;;4974545;28;86283;-71
2022/03/15 11:50:27;;;;;;;66.60;50.13;;;17.70;51.80;;;;;;4986034;28;86206;-71
2022/03/15 11:53:12;;;;;;;65.93;49.97;;;17.70;51.70;;;;;;4971661;28;88945;-71
2022/03/15 11:55:52;;;;;;;67.22;50.55;;;17.80;51.80;;;;;;4987131;28;85478;-71
2022/03/15 11:58:27;;;;;;;65.97;50.10;;;17.80;51.80;;;;;;4975587;28;87386;-71
2022/03/15 12:00:54;;;;;;;67.10;50.55;;;17.80;51.80;;;;;;4987178;28;86295;-71
2022/03/15 12:03:22;;;;;;;67.13;50.42;;;17.80;51.70;;;;;;4974283;28;87087;-71
2022/03/15 12:05:55;;;;;;;66.55;50.38;;;17.80;51.70;;;;;;4989083;28;86980;-71
2022/03/15 12:08:23;;;;;;;66.80;50.33;;;17.80;51.70;;;;;;4983588;28;85621;-71
2022/03/15 12:11:01;;;;;;;66.65;50.30;;;17.80;51.60;;;;;;4987079;28;86608;-72
2022/03/15 12:13:39;;;;;;;66.38;50.03;;;17.80;51.60;;;;;;4986678;28;88054;-72
2022/03/15 12:16:15;;;;;;;66.70;50.15;;;17.80;51.60;;;;;;4994019;28;87936;-71
2022/03/15 12:19:23;;;;;;;68.00;50.38;;;17.90;51.70;;;;;;4979352;28;86628;-71
2022/03/15 12:21:55;;;;;;;66.63;50.47;;;17.80;51.60;;;;;;4994827;27;85608;-71
2022/03/15 12:24:35;;;;;;;66.80;50.33;;;17.90;51.70;;;;;;4972068;28;86425;-71
2022/03/15 12:27:07;;;;;;;66.50;50.33;;;17.90;51.60;;;;;;4968385;28;85483;-71
2022/03/15 12:29:34;;;;;;;67.03;50.28;;;17.90;51.60;;;;;;4978267;28;88648;-71